createdAt,value
2019-05-25T00:01:37.418Z,19.26
2019-05-25T00:03:13.103Z,19.27
2019-05-25T00:04:49.420Z,19.26
2019-05-25T00:06:24.935Z,19.26
2019-05-25T00:08:01.277Z,19.24
2019-05-25T00:09:37.055Z,19.25
2019-05-25T00:11:13.398Z,19.25
2019-05-25T00:12:48.963Z,19.25
2019-05-25T00:14:25.330Z,19.25
2019-05-25T00:16:00.883Z,19.26
2019-05-25T00:17:37.221Z,19.26
2019-05-25T00:19:12.755Z,19.27
2019-05-25T00:20:49.345Z,19.27
2019-05-25T00:22:24.879Z,19.27
2019-05-25T00:24:11.794Z,19.28
2019-05-25T00:25:38.489Z,19.29
2019-05-25T00:27:14.784Z,19.30
2019-05-25T00:28:50.327Z,19.30
2019-05-25T00:30:26.644Z,19.29
2019-05-25T00:32:02.301Z,19.30
2019-05-25T00:33:38.626Z,19.29
2019-05-25T00:35:14.294Z,19.30
2019-05-25T00:36:50.595Z,19.30
2019-05-25T00:38:26.210Z,19.30
2019-05-25T00:40:02.651Z,19.30
2019-05-25T00:41:39.677Z,19.31
2019-05-25T00:43:15.990Z,19.30
2019-05-25T00:44:51.560Z,19.30
2019-05-25T00:46:27.827Z,19.30
2019-05-25T00:48:03.351Z,19.30
2019-05-25T00:49:40.621Z,19.30
2019-05-25T00:51:16.146Z,19.28
2019-05-25T00:52:52.531Z,19.26
2019-05-25T00:54:28.450Z,19.25
2019-05-25T00:56:05.205Z,19.23
2019-05-25T00:57:40.914Z,19.22
2019-05-25T00:59:17.219Z,19.22
2019-05-25T01:00:52.747Z,19.20
2019-05-25T01:02:29.083Z,19.20
2019-05-25T01:04:04.767Z,19.18
2019-05-25T01:05:41.093Z,19.17
2019-05-25T01:07:23.325Z,19.16
2019-05-25T01:09:00.499Z,19.16
2019-05-25T01:10:41.194Z,19.15
2019-05-25T01:12:16.709Z,19.14
2019-05-25T01:13:53.276Z,19.13
2019-05-25T01:15:28.876Z,19.13
2019-05-25T01:17:05.247Z,19.13
2019-05-25T01:18:40.778Z,19.12
2019-05-25T01:20:17.435Z,19.12
2019-05-25T01:21:52.961Z,19.08
2019-05-25T01:23:29.326Z,19.09
2019-05-25T01:25:06.911Z,19.06
2019-05-25T01:26:43.228Z,19.05
2019-05-25T01:28:18.777Z,19.05
2019-05-25T01:29:55.084Z,19.04
2019-05-25T01:31:30.621Z,19.02
2019-05-25T01:33:07.175Z,19.01
2019-05-25T01:34:42.720Z,18.98
2019-05-25T01:36:19.017Z,18.98
2019-05-25T01:37:54.803Z,18.95
2019-05-25T01:39:31.109Z,18.94
2019-05-25T01:41:06.616Z,18.92
2019-05-25T01:42:43.018Z,18.91
2019-05-25T01:44:18.591Z,18.89
2019-05-25T01:45:54.963Z,18.88
2019-05-25T01:47:30.556Z,18.86
2019-05-25T01:49:06.858Z,18.84
2019-05-25T01:50:42.975Z,18.82
2019-05-25T01:52:19.512Z,18.81
2019-05-25T01:53:55.036Z,18.79
2019-05-25T01:55:31.483Z,18.76
2019-05-25T01:57:07.111Z,18.75
2019-05-25T01:58:43.732Z,18.74
2019-05-25T02:00:20.983Z,18.72
2019-05-25T02:01:57.606Z,18.70
2019-05-25T02:03:33.470Z,18.68
2019-05-25T02:05:10.571Z,18.65
2019-05-25T02:06:46.116Z,18.63
2019-05-25T02:08:22.426Z,18.61
2019-05-25T02:09:57.952Z,18.59
2019-05-25T02:11:34.342Z,18.58
2019-05-25T02:13:09.860Z,18.56
2019-05-25T02:14:46.158Z,18.54
2019-05-25T02:16:21.712Z,18.53
2019-05-25T02:17:58.009Z,18.51
2019-05-25T02:19:33.527Z,18.49
2019-05-25T02:21:09.912Z,18.50
2019-05-25T02:22:45.457Z,18.49
2019-05-25T02:24:21.748Z,18.48
2019-05-25T02:25:57.311Z,18.47
2019-05-25T02:27:33.614Z,18.47
2019-05-25T02:29:09.149Z,18.46
2019-05-25T02:30:46.041Z,18.45
2019-05-25T02:32:21.585Z,18.46
2019-05-25T02:33:57.940Z,18.45
2019-05-25T02:35:33.718Z,18.46
2019-05-25T02:37:10.140Z,18.46
2019-05-25T02:38:45.672Z,18.47
2019-05-25T02:40:22.039Z,18.47
2019-05-25T02:41:57.562Z,18.48
2019-05-25T02:43:33.925Z,18.48
2019-05-25T02:45:09.539Z,18.49
2019-05-25T02:46:46.621Z,18.50
2019-05-25T02:48:22.156Z,18.50
2019-05-25T02:49:58.462Z,18.51
2019-05-25T02:51:33.984Z,18.53
2019-05-25T02:53:10.293Z,18.53
2019-05-25T02:54:46.270Z,18.54
2019-05-25T02:56:22.651Z,18.55
2019-05-25T02:57:58.199Z,18.56
2019-05-25T02:59:34.646Z,18.57
2019-05-25T03:01:11.323Z,18.57
2019-05-25T03:02:49.591Z,18.57
2019-05-25T03:04:25.080Z,18.58
2019-05-25T03:06:03.182Z,18.59
2019-05-25T03:07:40.337Z,18.59
2019-05-25T03:09:18.674Z,18.59
2019-05-25T03:10:54.660Z,18.60
2019-05-25T03:12:31.607Z,18.59
2019-05-25T03:14:07.185Z,18.58
2019-05-25T03:15:43.505Z,18.58
2019-05-25T03:17:19.062Z,18.59
2019-05-25T03:18:55.379Z,18.58
2019-05-25T03:20:31.027Z,18.57
2019-05-25T03:22:07.428Z,18.56
2019-05-25T03:23:42.956Z,18.55
2019-05-25T03:25:20.851Z,18.52
2019-05-25T03:26:56.375Z,18.51
2019-05-25T03:28:32.677Z,18.50
2019-05-25T03:30:09.258Z,18.49
2019-05-25T03:31:45.639Z,18.48
2019-05-25T03:33:21.147Z,18.47
2019-05-25T03:34:57.725Z,18.47
2019-05-25T03:36:33.256Z,18.47
2019-05-25T03:38:09.627Z,18.45
2019-05-25T03:39:45.143Z,18.45
2019-05-25T03:41:21.709Z,18.45
2019-05-25T03:42:57.249Z,18.45
2019-05-25T03:44:33.549Z,18.43
2019-05-25T03:46:09.074Z,18.44
2019-05-25T03:47:45.390Z,18.42
2019-05-25T03:49:22.042Z,18.42
2019-05-25T03:50:59.389Z,18.42
2019-05-25T03:52:36.162Z,18.42
2019-05-25T03:54:12.460Z,18.41
2019-05-25T03:55:48.045Z,18.41
2019-05-25T03:57:24.384Z,18.41
2019-05-25T03:58:59.924Z,18.40
2019-05-25T04:00:38.831Z,18.41
2019-05-25T04:02:14.680Z,18.42
2019-05-25T04:03:51.121Z,18.45
2019-05-25T04:05:26.681Z,18.45
2019-05-25T04:07:03.045Z,18.47
2019-05-25T04:08:38.574Z,18.50
2019-05-25T04:10:15.448Z,18.52
2019-05-25T04:11:50.992Z,18.53
2019-05-25T04:13:27.314Z,18.56
2019-05-25T04:15:03.182Z,18.58
2019-05-25T04:16:39.464Z,18.62
2019-05-25T04:18:15.279Z,18.64
2019-05-25T04:19:51.842Z,18.68
2019-05-25T04:21:28.355Z,18.72
2019-05-25T04:23:04.665Z,18.74
2019-05-25T04:24:40.338Z,18.77
2019-05-25T04:26:22.644Z,18.80
2019-05-25T04:27:54.233Z,18.83
2019-05-25T04:29:30.794Z,18.87
2019-05-25T04:31:06.328Z,18.90
2019-05-25T04:32:42.650Z,18.94
2019-05-25T04:34:18.165Z,18.97
2019-05-25T04:35:54.726Z,18.99
2019-05-25T04:37:30.239Z,19.03
2019-05-25T04:39:09.060Z,19.07
2019-05-25T04:40:44.893Z,19.08
2019-05-25T04:42:21.522Z,19.13
2019-05-25T04:43:57.046Z,19.18
2019-05-25T04:45:37.183Z,19.21
2019-05-25T04:47:26.073Z,19.24
2019-05-25T04:48:51.805Z,19.26
2019-05-25T04:50:27.331Z,19.31
2019-05-25T04:52:03.657Z,19.34
2019-05-25T04:53:40.272Z,19.39
2019-05-25T04:55:16.790Z,19.42
2019-05-25T04:56:52.316Z,19.47
2019-05-25T04:58:28.708Z,19.53
2019-05-25T05:00:06.874Z,19.57
2019-05-25T05:01:46.390Z,19.60
2019-05-25T05:03:28.671Z,19.67
2019-05-25T05:05:15.822Z,19.73
2019-05-25T05:06:57.458Z,19.82
2019-05-25T05:08:35.925Z,19.93
2019-05-25T05:10:12.072Z,20.07
2019-05-25T05:11:49.847Z,20.22
2019-05-25T05:13:28.334Z,20.37
2019-05-25T05:15:06.283Z,20.53
2019-05-25T05:16:44.785Z,20.68
2019-05-25T05:18:25.559Z,20.84
2019-05-25T05:20:02.221Z,20.98
2019-05-25T05:21:37.946Z,21.14
2019-05-25T05:23:17.269Z,21.29
2019-05-25T05:24:54.483Z,21.47
2019-05-25T05:26:34.158Z,21.64
2019-05-25T05:28:18.790Z,21.84
2019-05-25T05:30:00.321Z,21.99
2019-05-25T05:31:39.446Z,22.14
2019-05-25T05:33:17.223Z,22.27
2019-05-25T05:34:55.817Z,22.42
2019-05-25T05:36:40.029Z,22.58
2019-05-25T05:38:11.802Z,22.76
2019-05-25T05:39:54.624Z,22.92
2019-05-25T05:41:35.626Z,23.10
2019-05-25T05:43:13.075Z,23.28
2019-05-25T05:44:50.131Z,23.46
2019-05-25T05:46:29.182Z,23.64
2019-05-25T05:48:11.870Z,23.84
2019-05-25T05:49:53.761Z,24.00
2019-05-25T05:51:38.991Z,24.15
2019-05-25T05:53:20.232Z,24.31
2019-05-25T05:55:00.775Z,24.49
2019-05-25T05:56:37.242Z,24.66
2019-05-25T05:58:13.038Z,24.84
2019-05-25T06:00:05.284Z,25.00
2019-05-25T06:01:42.509Z,25.15
2019-05-25T06:03:19.429Z,25.26
2019-05-25T06:04:57.204Z,25.39
2019-05-25T06:06:34.336Z,25.52
2019-05-25T06:08:14.651Z,25.65
2019-05-25T06:09:53.756Z,25.79
2019-05-25T06:11:29.608Z,25.90
2019-05-25T06:13:06.260Z,26.05
2019-05-25T06:14:42.277Z,26.18
2019-05-25T06:16:19.611Z,26.28
2019-05-25T06:17:55.540Z,26.37
2019-05-25T06:19:31.437Z,26.49
2019-05-25T06:21:08.351Z,26.61
2019-05-25T06:22:46.269Z,26.73
2019-05-25T06:24:26.183Z,26.84
2019-05-25T06:26:01.802Z,26.95
2019-05-25T06:27:38.994Z,27.06
2019-05-25T06:29:30.624Z,27.15
2019-05-25T06:31:09.666Z,27.22
2019-05-25T06:32:47.779Z,27.31
2019-05-25T06:34:28.982Z,27.39
2019-05-25T06:36:10.531Z,27.44
2019-05-25T06:37:44.578Z,27.51
2019-05-25T06:39:21.817Z,27.55
2019-05-25T06:40:57.898Z,27.61
2019-05-25T06:42:34.056Z,27.63
2019-05-25T06:44:13.413Z,27.63
2019-05-25T06:45:49.930Z,27.64
2019-05-25T06:47:28.707Z,27.68
2019-05-25T06:49:05.088Z,27.71
2019-05-25T06:50:40.647Z,27.77
2019-05-25T06:52:16.981Z,27.84
2019-05-25T06:53:52.516Z,27.92
2019-05-25T06:55:28.917Z,27.97
2019-05-25T06:57:04.617Z,28.04
2019-05-25T06:58:40.923Z,28.08
2019-05-25T07:00:16.998Z,28.13
2019-05-25T07:01:53.314Z,28.19
2019-05-25T07:03:28.890Z,28.26
2019-05-25T07:05:10.626Z,28.33
2019-05-25T07:06:47.156Z,28.44
2019-05-25T07:08:23.709Z,28.54
2019-05-25T07:09:59.289Z,28.63
2019-05-25T07:11:35.562Z,28.72
2019-05-25T07:13:11.108Z,28.81
2019-05-25T07:14:47.434Z,28.93
2019-05-25T07:16:22.956Z,29.01
2019-05-25T07:17:59.274Z,29.10
2019-05-25T07:19:34.801Z,29.15
2019-05-25T07:21:11.363Z,29.19
2019-05-25T07:22:48.093Z,29.26
2019-05-25T07:24:24.418Z,29.31
2019-05-25T07:25:59.972Z,29.41
2019-05-25T07:27:36.306Z,29.48
2019-05-25T07:29:11.834Z,29.57
2019-05-25T07:30:49.219Z,29.63
2019-05-25T07:32:24.787Z,29.68
2019-05-25T07:34:01.076Z,29.71
2019-05-25T07:35:37.924Z,29.74
2019-05-25T07:37:14.225Z,29.79
2019-05-25T07:38:50.584Z,29.84
2019-05-25T07:40:26.995Z,29.91
2019-05-25T07:42:02.578Z,29.96
2019-05-25T07:43:39.242Z,30.02
2019-05-25T07:45:15.945Z,30.07
2019-05-25T07:46:52.254Z,30.11
2019-05-25T07:48:28.084Z,30.15
2019-05-25T07:50:06.796Z,30.22
2019-05-25T07:51:42.325Z,30.28
2019-05-25T07:53:18.659Z,30.36
2019-05-25T07:54:54.158Z,30.44
2019-05-25T07:56:30.782Z,30.54
2019-05-25T07:58:16.884Z,30.58
2019-05-25T07:59:44.342Z,30.62
2019-05-25T08:01:19.908Z,30.67
2019-05-25T08:02:56.303Z,30.69
2019-05-25T08:04:31.882Z,30.72
2019-05-25T08:06:08.246Z,30.75
2019-05-25T08:07:43.756Z,30.79
2019-05-25T08:09:20.096Z,30.85
2019-05-25T08:10:55.636Z,30.90
2019-05-25T08:12:31.957Z,30.98
2019-05-25T08:14:07.536Z,31.07
2019-05-25T08:15:44.055Z,31.15
2019-05-25T08:17:19.830Z,31.23
2019-05-25T08:18:56.126Z,31.36
2019-05-25T08:20:31.966Z,31.47
2019-05-25T08:22:08.311Z,31.60
2019-05-25T08:23:43.841Z,31.64
2019-05-25T08:25:20.745Z,31.61
2019-05-25T08:26:56.294Z,31.53
2019-05-25T08:28:33.378Z,31.43
2019-05-25T08:30:10.949Z,31.31
2019-05-25T08:31:47.327Z,31.20
2019-05-25T08:33:23.227Z,31.07
2019-05-25T08:35:01.219Z,30.92
2019-05-25T08:36:37.987Z,30.77
2019-05-25T08:38:14.396Z,30.64
2019-05-25T08:39:50.006Z,30.50
2019-05-25T08:41:26.318Z,30.38
2019-05-25T08:43:12.554Z,30.28
2019-05-25T08:44:45.949Z,30.19
2019-05-25T08:46:21.490Z,30.03
2019-05-25T08:47:57.800Z,29.88
2019-05-25T08:49:33.318Z,29.72
2019-05-25T08:51:09.635Z,29.58
2019-05-25T08:52:45.202Z,29.47
2019-05-25T08:54:21.518Z,29.38
2019-05-25T08:55:57.009Z,29.32
2019-05-25T08:57:34.177Z,29.30
2019-05-25T08:59:09.747Z,29.32
2019-05-25T09:00:47.414Z,29.38
2019-05-25T09:02:23.196Z,29.43
2019-05-25T09:03:59.525Z,29.49
2019-05-25T09:05:37.261Z,29.58
2019-05-25T09:07:13.570Z,29.70
2019-05-25T09:08:49.169Z,29.88
2019-05-25T09:10:27.963Z,30.03
2019-05-25T09:12:03.597Z,30.11
2019-05-25T09:13:40.463Z,30.14
2019-05-25T09:15:16.515Z,30.15
2019-05-25T09:16:52.916Z,30.16
2019-05-25T09:18:28.698Z,30.16
2019-05-25T09:20:07.863Z,30.17
2019-05-25T09:21:43.706Z,30.22
2019-05-25T09:23:20.315Z,30.28
2019-05-25T09:24:55.823Z,30.36
2019-05-25T09:26:32.125Z,30.47
2019-05-25T09:28:07.644Z,30.56
2019-05-25T09:29:44.915Z,30.62
2019-05-25T09:31:20.750Z,30.65
2019-05-25T09:32:57.059Z,30.69
2019-05-25T09:34:32.725Z,30.76
2019-05-25T09:36:09.038Z,30.85
2019-05-25T09:37:44.802Z,30.99
2019-05-25T09:39:21.102Z,31.14
2019-05-25T09:40:57.190Z,31.24
2019-05-25T09:42:34.479Z,31.24
2019-05-25T09:44:09.981Z,31.22
2019-05-25T09:45:47.048Z,31.24
2019-05-25T09:47:22.575Z,31.31
2019-05-25T09:48:58.886Z,31.41
2019-05-25T09:50:34.418Z,31.47
2019-05-25T09:52:10.708Z,31.51
2019-05-25T09:53:46.328Z,31.56
2019-05-25T09:55:22.704Z,31.63
2019-05-25T09:56:58.230Z,31.77
2019-05-25T09:58:34.533Z,31.90
2019-05-25T10:00:12.855Z,32.01
2019-05-25T10:01:49.336Z,32.10
2019-05-25T10:03:24.852Z,32.16
2019-05-25T10:05:01.143Z,32.23
2019-05-25T10:06:36.662Z,32.29
2019-05-25T10:08:12.964Z,32.39
2019-05-25T10:09:48.568Z,32.46
2019-05-25T10:11:24.916Z,32.52
2019-05-25T10:13:00.392Z,32.57
2019-05-25T10:14:36.679Z,32.62
2019-05-25T10:16:12.293Z,32.56
2019-05-25T10:17:49.743Z,32.53
2019-05-25T10:19:25.332Z,32.59
2019-05-25T10:21:01.621Z,32.69
2019-05-25T10:22:37.238Z,32.67
2019-05-25T10:24:13.526Z,32.56
2019-05-25T10:25:49.034Z,32.42
2019-05-25T10:27:25.351Z,32.25
2019-05-25T10:29:01.275Z,32.10
2019-05-25T10:30:37.565Z,32.00
2019-05-25T10:32:13.079Z,31.92
2019-05-25T10:33:50.203Z,31.88
2019-05-25T10:35:25.987Z,31.83
2019-05-25T10:37:02.283Z,31.79
2019-05-25T10:38:38.778Z,31.80
2019-05-25T10:40:15.474Z,31.84
2019-05-25T10:41:51.189Z,31.90
2019-05-25T10:43:27.573Z,31.96
2019-05-25T10:45:03.555Z,32.02
2019-05-25T10:46:39.872Z,32.03
2019-05-25T10:48:15.639Z,32.03
2019-05-25T10:49:51.930Z,31.99
2019-05-25T10:51:27.445Z,31.91
2019-05-25T10:53:03.794Z,31.79
2019-05-25T10:54:39.343Z,31.66
2019-05-25T10:56:15.640Z,31.56
2019-05-25T10:57:51.175Z,31.50
2019-05-25T10:59:27.467Z,31.44
2019-05-25T11:01:02.977Z,31.38
2019-05-25T11:02:39.572Z,31.28
2019-05-25T11:04:15.522Z,31.22
2019-05-25T11:05:51.813Z,31.17
2019-05-25T11:07:28.952Z,31.10
2019-05-25T11:09:07.233Z,31.03
2019-05-25T11:10:43.000Z,30.97
2019-05-25T11:12:20.912Z,30.91
2019-05-25T11:13:56.473Z,30.87
2019-05-25T11:15:32.754Z,30.85
2019-05-25T11:17:09.381Z,30.81
2019-05-25T11:18:45.684Z,30.76
2019-05-25T11:20:22.421Z,30.73
2019-05-25T11:21:58.716Z,30.72
2019-05-25T11:23:34.232Z,30.67
2019-05-25T11:25:11.871Z,30.65
2019-05-25T11:27:04.199Z,30.67
2019-05-25T11:28:40.550Z,30.65
2019-05-25T11:30:16.210Z,30.61
2019-05-25T11:31:56.530Z,30.58
2019-05-25T11:33:29.960Z,30.54
2019-05-25T11:35:10.658Z,30.47
2019-05-25T11:36:46.952Z,30.38
2019-05-25T11:38:22.467Z,30.30
2019-05-25T11:39:58.778Z,30.27
2019-05-25T11:41:34.297Z,30.24
2019-05-25T11:43:11.747Z,30.22
2019-05-25T11:44:47.289Z,30.25
2019-05-25T11:46:23.575Z,30.28
2019-05-25T11:47:59.095Z,30.28
2019-05-25T11:49:35.494Z,30.30
2019-05-25T11:51:11.074Z,30.34
2019-05-25T11:52:47.425Z,30.42
2019-05-25T11:54:22.993Z,30.45
2019-05-25T11:55:59.278Z,30.41
2019-05-25T11:57:34.795Z,30.35
2019-05-25T11:59:11.106Z,30.31
2019-05-25T12:00:46.619Z,30.33
2019-05-25T12:02:22.923Z,30.42
2019-05-25T12:03:58.447Z,30.48
2019-05-25T12:05:34.756Z,30.48
2019-05-25T12:07:10.262Z,30.42
2019-05-25T12:08:46.545Z,30.37
2019-05-25T12:10:22.458Z,30.34
2019-05-25T12:11:59.020Z,30.35
2019-05-25T12:13:34.529Z,30.44
2019-05-25T12:15:12.186Z,30.53
2019-05-25T12:16:47.708Z,30.56
2019-05-25T12:18:24.003Z,30.51
2019-05-25T12:19:59.526Z,30.44
2019-05-25T12:21:36.260Z,30.33
2019-05-25T12:23:14.345Z,30.24
2019-05-25T12:24:50.227Z,30.17
2019-05-25T12:26:26.005Z,30.15
2019-05-25T12:28:02.363Z,30.15
2019-05-25T12:29:38.253Z,30.27
2019-05-25T12:31:14.630Z,30.52
2019-05-25T12:32:50.175Z,30.81
2019-05-25T12:34:26.545Z,31.18
2019-05-25T12:36:02.278Z,31.54
2019-05-25T12:37:38.572Z,31.86
2019-05-25T12:39:14.096Z,32.16
2019-05-25T12:40:53.586Z,32.46
2019-05-25T12:42:27.852Z,32.72
2019-05-25T12:44:05.934Z,32.95
2019-05-25T12:45:42.290Z,33.19
2019-05-25T12:47:18.731Z,33.42
2019-05-25T12:48:54.241Z,33.60
2019-05-25T12:50:30.543Z,33.62
2019-05-25T12:52:06.109Z,33.49
2019-05-25T12:53:42.429Z,33.29
2019-05-25T12:55:18.103Z,33.06
2019-05-25T12:56:55.693Z,32.84
2019-05-25T12:58:31.323Z,32.72
2019-05-25T13:00:16.908Z,32.69
2019-05-25T13:01:46.509Z,32.57
2019-05-25T13:03:22.813Z,32.49
2019-05-25T13:04:58.377Z,32.48
2019-05-25T13:06:34.669Z,32.38
2019-05-25T13:08:10.181Z,32.36
2019-05-25T13:09:46.854Z,32.42
2019-05-25T13:11:22.365Z,32.52
2019-05-25T13:13:01.890Z,32.65
2019-05-25T13:14:35.921Z,32.77
2019-05-25T13:16:12.283Z,32.82
2019-05-25T13:17:47.837Z,32.86
2019-05-25T13:19:24.135Z,32.88
2019-05-25T13:20:59.654Z,32.91
2019-05-25T13:22:36.031Z,32.90
2019-05-25T13:24:11.570Z,32.89
2019-05-25T13:25:47.837Z,32.94
2019-05-25T13:27:23.349Z,32.97
2019-05-25T13:28:59.638Z,32.99
2019-05-25T13:30:35.165Z,32.98
2019-05-25T13:32:12.438Z,32.97
2019-05-25T13:33:47.957Z,32.93
2019-05-25T13:35:25.479Z,32.89
2019-05-25T13:37:02.066Z,32.88
2019-05-25T13:38:39.466Z,32.81
2019-05-25T13:40:15.546Z,32.69
2019-05-25T13:41:51.854Z,32.49
2019-05-25T13:43:27.735Z,32.34
2019-05-25T13:45:04.193Z,32.16
2019-05-25T13:46:39.706Z,32.04
2019-05-25T13:48:17.707Z,31.87
2019-05-25T13:49:53.259Z,31.63
2019-05-25T13:51:29.572Z,31.43
2019-05-25T13:53:05.094Z,31.22
2019-05-25T13:54:42.359Z,31.10
2019-05-25T13:56:17.895Z,31.05
2019-05-25T13:57:54.204Z,31.04
2019-05-25T13:59:29.728Z,31.05
2019-05-25T14:01:06.320Z,31.06
2019-05-25T14:02:41.832Z,31.08
2019-05-25T14:04:18.380Z,31.12
2019-05-25T14:05:53.911Z,31.17
2019-05-25T14:07:30.213Z,31.14
2019-05-25T14:09:07.756Z,31.04
2019-05-25T14:10:44.089Z,30.88
2019-05-25T14:12:19.670Z,30.71
2019-05-25T14:13:56.932Z,30.52
2019-05-25T14:15:32.583Z,30.35
2019-05-25T14:17:08.870Z,30.20
2019-05-25T14:18:44.460Z,30.02
2019-05-25T14:20:30.967Z,29.86
2019-05-25T14:22:07.368Z,29.73
2019-05-25T14:23:43.301Z,29.56
2019-05-25T14:25:19.856Z,29.43
2019-05-25T14:26:55.416Z,29.32
2019-05-25T14:28:31.743Z,29.21
2019-05-25T14:30:08.854Z,29.09
2019-05-25T14:31:46.305Z,29.00
2019-05-25T14:33:25.082Z,28.96
2019-05-25T14:35:02.760Z,28.90
2019-05-25T14:36:39.333Z,28.84
2019-05-25T14:38:15.471Z,28.75
2019-05-25T14:39:51.084Z,28.67
2019-05-25T14:41:27.382Z,28.57
2019-05-25T14:43:02.882Z,28.48
2019-05-25T14:44:39.187Z,28.41
2019-05-25T14:46:27.546Z,28.31
2019-05-25T14:47:54.242Z,28.26
2019-05-25T14:49:30.591Z,28.21
2019-05-25T14:51:06.964Z,28.18
2019-05-25T14:52:43.519Z,28.18
2019-05-25T14:54:20.340Z,28.20
2019-05-25T14:55:56.364Z,28.23
2019-05-25T14:57:32.978Z,28.29
2019-05-25T14:59:08.454Z,28.33
2019-05-25T15:00:44.918Z,28.39
2019-05-25T15:02:20.502Z,28.42
2019-05-25T15:03:56.845Z,28.42
2019-05-25T15:05:32.343Z,28.44
2019-05-25T15:07:08.750Z,28.46
2019-05-25T15:08:44.536Z,28.47
2019-05-25T15:10:21.104Z,28.42
2019-05-25T15:11:57.048Z,28.36
2019-05-25T15:13:33.603Z,28.29
2019-05-25T15:15:10.212Z,28.23
2019-05-25T15:16:48.018Z,28.17
2019-05-25T15:18:23.521Z,28.10
2019-05-25T15:20:00.087Z,28.04
2019-05-25T15:21:35.771Z,27.97
2019-05-25T15:23:12.115Z,27.90
2019-05-25T15:24:47.646Z,27.84
2019-05-25T15:26:25.026Z,27.79
2019-05-25T15:28:00.813Z,27.74
2019-05-25T15:29:37.354Z,27.68
2019-05-25T15:31:12.911Z,27.65
2019-05-25T15:32:49.210Z,27.59
2019-05-25T15:34:25.250Z,27.52
2019-05-25T15:36:01.567Z,27.47
2019-05-25T15:37:37.084Z,27.40
2019-05-25T15:39:13.386Z,27.32
2019-05-25T15:40:48.900Z,27.24
2019-05-25T15:42:25.208Z,27.15
2019-05-25T15:44:01.050Z,27.07
2019-05-25T15:45:37.345Z,26.98
2019-05-25T15:47:13.052Z,26.90
2019-05-25T15:48:49.360Z,26.83
2019-05-25T15:50:27.689Z,26.77
2019-05-25T15:52:04.464Z,26.68
2019-05-25T15:53:39.996Z,26.61
2019-05-25T15:55:16.474Z,26.56
2019-05-25T15:56:51.996Z,26.49
2019-05-25T15:58:28.321Z,26.42
2019-05-25T16:00:09.661Z,26.34
2019-05-25T16:01:45.958Z,26.25
2019-05-25T16:03:22.054Z,26.18
2019-05-25T16:04:58.364Z,26.12
2019-05-25T16:06:34.154Z,26.05
2019-05-25T16:08:10.490Z,25.97
2019-05-25T16:09:46.010Z,25.90
2019-05-25T16:11:22.293Z,25.83
2019-05-25T16:12:57.820Z,25.78
2019-05-25T16:14:34.235Z,25.72
2019-05-25T16:16:09.783Z,25.68
2019-05-25T16:17:46.136Z,25.66
2019-05-25T16:19:28.159Z,25.65
2019-05-25T16:21:09.339Z,25.63
2019-05-25T16:27:44.478Z,25.50
2019-05-25T16:29:19.814Z,25.40
2019-05-25T16:30:59.946Z,25.38
2019-05-25T16:33:07.023Z,25.35
2019-05-25T16:35:28.319Z,25.34
2019-05-25T16:37:00.246Z,25.31
2019-05-25T16:38:38.280Z,25.27
2019-05-25T16:40:16.541Z,25.19
2019-05-25T16:42:31.296Z,25.17
2019-05-25T16:44:06.810Z,25.14
2019-05-25T16:45:43.149Z,25.08
2019-05-25T16:47:18.676Z,25.06
2019-05-25T16:48:55.020Z,25.02
2019-05-25T16:50:30.548Z,24.99
2019-05-25T16:54:18.604Z,24.87
2019-05-25T16:56:00.870Z,24.77
2019-05-25T16:57:40.276Z,24.71
2019-05-25T16:59:29.098Z,24.65
2019-05-25T17:01:07.028Z,24.59
2019-05-25T17:02:47.783Z,24.53
2019-05-25T17:04:48.095Z,24.49
2019-05-25T17:06:27.174Z,24.44
2019-05-25T17:08:59.429Z,24.40
2019-05-25T17:10:42.095Z,24.36
2019-05-25T17:12:18.434Z,24.24
2019-05-25T17:13:56.107Z,24.20
2019-05-25T17:33:17.929Z,23.70
2019-05-25T17:34:54.235Z,23.63
2019-05-25T17:36:29.773Z,23.60
2019-05-25T17:38:06.309Z,23.62
2019-05-25T17:39:41.830Z,23.61
2019-05-25T17:41:18.420Z,23.61
2019-05-25T17:42:53.947Z,23.59
2019-05-25T17:44:30.278Z,23.58
2019-05-25T17:46:05.862Z,23.57
2019-05-25T17:47:42.193Z,23.56
2019-05-25T17:49:17.742Z,23.56
2019-05-25T17:50:54.042Z,23.55
2019-05-25T17:52:29.588Z,23.54
2019-05-25T17:54:06.217Z,23.53
2019-05-25T17:55:42.792Z,23.53
2019-05-25T17:57:19.209Z,23.52
2019-05-25T17:58:54.700Z,23.51
2019-05-25T18:00:41.779Z,23.50
2019-05-25T18:02:18.108Z,23.50
2019-05-25T18:04:06.556Z,23.49
2019-05-25T18:05:31.704Z,23.46
2019-05-25T18:07:07.245Z,23.46
2019-05-25T18:08:43.552Z,23.47
2019-05-25T18:10:19.202Z,23.48
2019-05-25T18:11:55.520Z,23.47
2019-05-25T18:13:31.057Z,23.45
2019-05-25T18:15:10.452Z,23.45
2019-05-25T18:16:45.967Z,23.45
2019-05-25T18:18:22.407Z,23.42
2019-05-25T18:19:57.952Z,23.41
2019-05-25T18:21:34.287Z,23.39
2019-05-25T18:23:10.584Z,23.36
2019-05-25T18:24:46.943Z,23.34
2019-05-25T18:26:22.434Z,23.32
2019-05-25T18:27:58.743Z,23.28
2019-05-25T18:29:34.354Z,23.25
2019-05-25T18:31:11.987Z,23.21
2019-05-25T18:32:47.502Z,23.19
2019-05-25T18:34:24.272Z,23.13
2019-05-25T18:36:00.150Z,23.10
2019-05-25T18:37:36.479Z,23.06
2019-05-25T18:39:11.978Z,23.02
2019-05-25T18:40:48.466Z,23.00
2019-05-25T18:42:29.490Z,22.98
2019-05-25T18:44:03.868Z,22.93
2019-05-25T18:45:39.704Z,22.91
2019-05-25T18:47:16.006Z,22.87
2019-05-25T18:48:51.920Z,22.84
2019-05-25T18:50:28.554Z,22.81
2019-05-25T18:52:04.077Z,22.77
2019-05-25T18:53:40.410Z,22.72
2019-05-25T18:55:17.205Z,22.68
2019-05-25T18:56:53.505Z,22.63
2019-05-25T18:58:29.092Z,22.59
2019-05-25T19:00:08.343Z,22.56
2019-05-25T19:01:43.952Z,22.51
2019-05-25T19:03:20.238Z,22.45
2019-05-25T19:04:59.882Z,22.40
2019-05-25T19:06:33.877Z,22.36
2019-05-25T19:08:09.465Z,22.31
2019-05-25T19:09:45.763Z,22.26
2019-05-25T19:11:21.330Z,22.21
2019-05-25T19:12:57.679Z,22.18
2019-05-25T19:14:33.473Z,22.12
2019-05-25T19:16:09.810Z,22.07
2019-05-25T19:17:45.344Z,22.03
2019-05-25T19:19:21.673Z,21.98
2019-05-25T19:20:57.210Z,21.93
2019-05-25T19:22:33.506Z,21.90
2019-05-25T19:24:09.030Z,21.86
2019-05-25T19:25:45.445Z,21.81
2019-05-25T19:27:21.462Z,21.77
2019-05-25T19:28:57.810Z,21.70
2019-05-25T19:30:33.380Z,21.67
2019-05-25T19:32:09.911Z,21.62
2019-05-25T19:33:45.466Z,21.58
2019-05-25T19:35:21.911Z,21.54
2019-05-25T19:36:57.456Z,21.51
2019-05-25T19:38:33.820Z,21.46
2019-05-25T19:40:09.948Z,21.43
2019-05-25T19:41:46.262Z,21.37
2019-05-25T19:43:21.848Z,21.33
2019-05-25T19:44:58.186Z,21.29
2019-05-25T19:46:33.725Z,21.26
2019-05-25T19:48:10.163Z,21.21
2019-05-25T19:49:45.689Z,21.17
2019-05-25T19:51:22.254Z,21.13
2019-05-25T19:52:57.778Z,21.08
2019-05-25T19:54:34.469Z,21.05
2019-05-25T19:56:09.993Z,21.01
2019-05-25T19:57:46.306Z,20.97
2019-05-25T19:59:21.828Z,20.93
2019-05-25T20:00:59.122Z,20.90
2019-05-25T20:02:34.639Z,20.85
2019-05-25T20:04:11.191Z,20.81
2019-05-25T20:05:46.711Z,20.77
2019-05-25T20:07:23.032Z,20.71
2019-05-25T20:08:58.591Z,20.68
2019-05-25T20:10:34.881Z,20.62
2019-05-25T20:12:10.510Z,20.57
2019-05-25T20:13:46.962Z,20.52
2019-05-25T20:15:22.853Z,20.49
2019-05-25T20:16:59.236Z,20.45
2019-05-25T20:18:34.757Z,20.42
2019-05-25T20:20:12.774Z,20.38
2019-05-25T20:21:48.368Z,20.36
2019-05-25T20:23:24.656Z,20.32
2019-05-25T20:25:00.171Z,20.28
2019-05-25T20:26:36.494Z,20.26
2019-05-25T20:28:12.261Z,20.21
2019-05-25T20:29:48.659Z,20.16
2019-05-25T20:31:24.201Z,20.13
2019-05-25T20:33:00.517Z,20.09
2019-05-25T20:34:36.046Z,20.06
2019-05-25T20:36:12.345Z,20.03
2019-05-25T20:37:47.968Z,20.00
2019-05-25T20:39:24.283Z,19.96
2019-05-25T20:41:00.558Z,19.92
2019-05-25T20:42:36.856Z,19.90
2019-05-25T20:44:12.371Z,19.86
2019-05-25T20:45:48.963Z,19.82
2019-05-25T20:47:24.562Z,19.79
2019-05-25T20:49:00.859Z,19.77
2019-05-25T20:50:36.385Z,19.74
2019-05-25T20:52:12.680Z,19.71
2019-05-25T20:53:48.523Z,19.70
2019-05-25T20:55:24.829Z,19.67
2019-05-25T20:57:00.355Z,19.64
2019-05-25T20:58:39.067Z,19.63
2019-05-25T21:00:14.521Z,19.60
2019-05-25T21:01:50.831Z,19.57
2019-05-25T21:03:26.346Z,19.54
2019-05-25T21:05:02.992Z,19.51
2019-05-25T21:06:38.485Z,19.48
2019-05-25T21:08:14.856Z,19.45
2019-05-25T21:09:50.371Z,19.39
2019-05-25T21:11:26.745Z,19.37
2019-05-25T21:13:02.296Z,19.32